Reklama
Líbí se Vám tento web? Budeme velmi rádi, pokud přidáte hodnocení +1

Seznam meteostanic a jejich METAR

Vyhledat místa podle abecedy:
A B C D E F G H I J K L M N O P Q R S T U V W X Y Z

Filtrovat:

ID stanice:
a/nebo
Název místa (fulltext):
 
Místo (ID)Naposledy načteno 
Odense (EKOD) 20.06.2018 16:50 UTC Zobrazit METAR
EKOD 201650Z 25019KT 9999 FEW022 BKN032 19/16 Q1013
Odesa (UKOO) 01.02.2018 08:00 UTC Zobrazit METAR
UKOO 010800Z CAVOK 07/04 Q1018 R16/190056 NOSIG
Osijek (LDOS) 21.06.2018 02:00 UTC Zobrazit METAR
LDOS 210200Z VRB02KT CAVOK 18/17 Q1017
Oslo (ENGM) 21.06.2018 01:50 UTC Zobrazit METAR
ENGM 210150Z 31004KT CAVOK 07/05 Q1003
Ostend (EBOS) 21.06.2018 01:50 UTC Zobrazit METAR
EBOS 210150Z 28014KT 9999 SCT007 BKN040 16/13 Q1018 TEMPO BKN008
Ostrava (LKMT) 21.06.2018 02:00 UTC Zobrazit METAR
LKMT 210200Z 20003KT CAVOK 15/15 Q1017 NOSIG
Ottawa (CYOW) 21.06.2018 02:00 UTC Zobrazit METAR
CYOW 210200Z 34009KT 15SM SCT077 OVC150 20/13 A2980 RMK AC3AC5 SLP091 DENSITY ALT 1200FT
Ouagadougou (DFFD) 21.06.2018 02:00 UTC Zobrazit METAR
DFFD 210200Z 21010KT CAVOK 29/21 Q1011 NOSIG
Oulu (EFOU) 21.06.2018 01:50 UTC Zobrazit METAR
EFOU 210150Z AUTO 22006KT CAVOK 12/06 Q1000
Reklama

Počasí na Váš email

Emaily jsou bez reklamy a bez spamu



Odhlásit newsletter

Reklama


Lunární kalendář

  • 28.06.
  • 06.07.
  • 13.07.
  • 19.07.



Slunečno.cz na Google+

Reklama


Reklama
Povinné ručení
Reklama




Reklama